Wargrave, United Kingdom
Current Conditions -  °F | °C
As of 7:50 PM on Sunday 23 Nov 2014 (Local Time) from EGUB Reporting Station
Few Clouds Few Clouds  
Wind Chill: 37°   Ceiling: Unl
Heat Index: 37°   Visibility: 0.12mi
Dew Point: 37°   Wind: 1mph
Humidity: 100%   Direction: 280°W
Pressure: 30.12"   Gusts: NA
Location:  51.5°N, 0.87°W
Report Text: EGUB 231950Z AUTO 28001KT 0200 // FEW180/// 03/03 Q1020
Loading
Personal Weather Stations






























Interactive Weather Map New forecast layout! Learn more

10-Day Weather Forecast

Advertisements
Track Severe Weather on mobile